Flight Track Log - Related Links

Times and Time Zones

All times are in EDT time to prevent confusion due to time zone crossing. See the VP-BLX flight status page for this flight to view local times or setup timezone preferences in your user account.

Time Position Orientation Groundspeed Altitude Reporting Facility
EDT Latitude Longitude Course Direction KTS MPH feet Rate Location/Type
Tue 07:49:00 PM 56.1319 36.8489 276° West  Level Estimated
Tue 07:50:00 PM 56.1804 36.6407 274° West  Level Estimated
Tue 07:51:00 PM 56.1193 36.4436 241° Southwest  Level FlightAware Approximate
Tue 07:52:00 PM 56.1670 36.2351 270° West  Level Estimated
Tue 07:53:00 PM 56.2145 36.0260 275° West  Level Estimated
Tue 07:54:00 PM 56.1530 35.8291 241° Southwest  Level FlightAware Approximate
Tue 07:55:00 PM 56.1998 35.6196 270° West  Level Estimated
Tue 07:56:00 PM 56.1431 35.4182 243° Southwest  Level FlightAware Approximate
Tue 07:57:00 PM 56.1892 35.2083 274° West  Level Estimated
Tue 07:58:00 PM 56.1440 34.9977 249° West  Level FlightAware Approximate
Tue 07:59:00 PM 56.1895 34.7874 270° West  Level Estimated
Tue 08:00:00 PM 56.2345 34.5765 270° West  Level Estimated
Tue 08:01:00 PM 56.2793 34.3651 270° West  Level Estimated
Tue 08:02:00 PM 56.3236 34.1532 291° West  Level Estimated
Tue 08:03:00 PM 56.3676 33.9408 291° West  Level Estimated
Tue 08:04:00 PM 56.4112 33.7280 290° West  Level Estimated
Tue 08:05:00 PM 56.4545 33.5146 290° West  Level Estimated
Tue 08:06:00 PM 56.4974 33.3008 290° West  Level Estimated
Tue 08:07:00 PM 56.5399 33.0865 290° West  Level Estimated
Tue 08:08:00 PM 56.5821 32.8717 290° West  Level Estimated
Tue 08:09:00 PM 56.6238 32.6564 290° West  Level Estimated
Tue 08:10:00 PM 56.6653 32.4407 289° West  Level Estimated
Tue 08:11:00 PM 56.7063 32.2245 289° West  Level Estimated
Tue 08:12:00 PM 56.7613 31.9306 289° West  Level Estimated
Tue 08:13:00 PM 56.8157 31.6360 289° West  Level Estimated
Tue 08:14:00 PM 56.8693 31.3404 288° West  Level Estimated
Tue 08:15:00 PM 56.9222 31.0440 288° West  Level Estimated
Tue 08:15:48 PM 56.3835 33.1062 279° West 396 456 36,000  Level FlightAware ADS-B
Tue 08:19:43 PM 56.5126 31.6013 278° West 392 451 36,000  Level FlightAware ADS-B
Tue 08:20:45 PM 56.5294 31.3884 278° West 394 453 36,000  Level FlightAware ADS-B
Tue 08:21:51 PM 56.5458 31.1747 278° West 396 456 36,000  Level FlightAware ADS-B
Tue 08:22:51 PM 56.5608 30.9760 278° West 398 458 36,000  Level FlightAware ADS-B
Tue 08:23:51 PM 56.5753 30.7798 278° West 399 459 36,000  Level FlightAware ADS-B
Tue 08:24:50 PM 56.5896 30.5819 277° West 402 463 36,000  Level FlightAware ADS-B
Tue 08:25:51 PM 56.6035 30.3819 277° West 404 465 36,000  Level FlightAware ADS-B
Tue 08:26:51 PM 56.6178 30.1753 277° West 406 467 36,000  Level FlightAware ADS-B
Tue 08:27:51 PM 56.6307 29.9836 277° West 405 466 36,000  Level FlightAware ADS-B
Tue 08:28:51 PM 56.6446 29.7711 277° West 408 470 36,000  Level FlightAware ADS-B
Tue 08:29:51 PM 56.6576 29.5692 277° West 409 471 36,000  Level FlightAware ADS-B
Tue 08:30:51 PM 56.6705 29.3634 276° West 408 470 36,000  Level FlightAware ADS-B
Tue 08:31:51 PM 56.6828 29.1597 276° West 408 470 36,000  Level FlightAware ADS-B
Tue 08:32:51 PM 56.6949 28.9559 276° West 410 472 36,000  Level FlightAware ADS-B
Tue 08:33:52 PM 56.7068 28.7482 276° West 411 473 36,000  Level FlightAware ADS-B
Tue 08:34:52 PM 56.7182 28.5441 276° West 411 473 36,000  Level FlightAware ADS-B
Tue 08:35:52 PM 56.7294 28.3370 275° West 412 474 36,000  Level FlightAware ADS-B
Tue 08:36:51 PM 56.7401 28.1335 275° West 412 474 36,000  Level FlightAware ADS-B
Tue 08:37:52 PM 56.7505 27.9281 275° West 411 473 36,000  Level FlightAware ADS-B
Tue 08:38:52 PM 56.7523 27.7181 268° West 412 474 36,000  Level FlightAware ADS-B
Tue 08:39:51 PM 56.7487 27.5147 268° West 414 476 36,000  Level FlightAware ADS-B
Tue 08:40:51 PM 56.7446 27.3010 268° West 416 479 36,000  Level FlightAware ADS-B
Tue 08:41:51 PM 56.7402 27.0928 267° West 419 482 36,000  Level FlightAware ADS-B
Tue 08:42:52 PM 56.7350 26.8785 267° West 421 484 36,000  Level FlightAware ADS-B
Tue 08:43:52 PM 56.7299 26.6706 267° West 418 481 36,000  Level FlightAware ADS-B
Tue 08:44:52 PM 56.7242 26.4597 267° West 417 480 36,000  Level FlightAware ADS-B
Tue 08:45:52 PM 56.7183 26.2487 267° West 418 481 36,000  Level FlightAware ADS-B
Tue 08:46:52 PM 56.7121 26.0391 267° West 420 483 36,000  Level FlightAware ADS-B
Tue 08:47:51 PM 56.7054 25.8266 267° West 428 493 36,000  Level FlightAware ADS-B
Tue 08:48:51 PM 56.6983 25.6118 267° West 428 493 36,000  Level FlightAware ADS-B
Tue 08:49:51 PM 56.6909 25.3999 266° West 420 483 36,000  Level FlightAware ADS-B
Tue 08:50:52 PM 56.6832 25.1903 266° West 415 478 36,000  Level FlightAware ADS-B
Tue 08:51:51 PM 56.6753 24.9819 266° West 414 476 36,000  Level FlightAware ADS-B
Tue 08:52:51 PM 56.6672 24.7784 266° West 413 475 36,000  Level FlightAware ADS-B
Tue 08:53:52 PM 56.6584 24.5690 265° West 415 478 36,000  Level FlightAware ADS-B
Tue 08:54:51 PM 56.6492 24.3574 265° West 419 482 36,000  Level FlightAware ADS-B
Tue 08:55:52 PM 56.6397 24.1463 265° West 423 487 36,000  Level FlightAware ADS-B
Tue 08:56:51 PM 56.6298 23.9322 265° West 432 497 36,000  Level FlightAware ADS-B
Tue 08:57:52 PM 56.6192 23.7150 265° West 432 497 36,000  Level FlightAware ADS-B
Tue 08:58:52 PM 56.6084 23.5001 265° West 433 498 36,000  Level FlightAware ADS-B
Tue 08:59:52 PM 56.5972 23.2851 265° West 435 501 36,000  Level FlightAware ADS-B
Tue 09:00:51 PM 56.5854 23.0664 264° West 436 502 36,000  Level FlightAware ADS-B
Tue 09:01:51 PM 56.5735 22.8519 264° West 437 503 36,000  Level FlightAware ADS-B
Tue 09:02:52 PM 56.5608 22.6303 264° West 437 503 36,000  Level FlightAware ADS-B
Tue 09:03:51 PM 56.5478 22.4130 264° West 439 505 36,000  Level FlightAware ADS-B
Tue 09:04:52 PM 56.5347 22.1967 264° West 437 503 36,000  Level FlightAware ADS-B
Tue 09:05:52 PM 56.5210 21.9780 263° West 438 504 36,000  Level FlightAware ADS-B
Tue 09:06:51 PM 56.5075 21.7684 263° West 438 504 36,000  Level FlightAware ADS-B
Tue 09:07:52 PM 56.4924 21.5410 263° West 440 506 36,000  Level FlightAware ADS-B
Tue 09:08:50 PM 56.4777 21.3263 263° West 443 510 36,000  Level FlightAware ADS-B
Tue 09:09:51 PM 56.4620 21.1009 263° West 445 512 36,000  Level FlightAware ADS-B
Tue 09:10:51 PM 56.4462 20.8818 262° West 448 516 36,000  Level FlightAware ADS-B
Tue 09:11:37 PM 56.4337 20.7111 262° West 449 517 36,000  Level FlightAware ADS-B
Tue 09:37:48 PM 55.5188 15.1017 248° West 457 526 36,000  Level FlightAware ADS-B
Tue 09:38:00 PM 56.9337 12.5764 273° West  Level Estimated
Tue 09:38:24 PM 55.4917 14.9844 248° West 458 527 36,000  Level FlightAware ADS-B
Tue 09:39:18 PM 55.4470 14.7917 248° West 459 528 36,000  Level FlightAware ADS-B
Tue 09:40:23 PM 55.3939 14.5655 248° West 462 532 36,000  Level FlightAware ADS-B
Tue 09:40:58 PM 55.3652 14.4445 248° West 462 532 36,000  Level FlightAware ADS-B
Tue 09:41:28 PM 55.3413 14.3441 247° West 463 533 36,000  Level FlightAware ADS-B
Tue 09:41:58 PM 55.3175 14.2444 247° West 464 534 36,000  Level FlightAware ADS-B
Tue 09:42:29 PM 55.2908 14.1330 247° West 463 533 36,000  Level FlightAware ADS-B
Tue 09:43:15 PM 55.2525 13.9736 247° West 463 533 36,000  Level FlightAware ADS-B
Tue 09:43:49 PM 55.2246 13.8595 247° West 461 531 36,000  Level FlightAware ADS-B
Tue 09:44:19 PM 55.1982 13.7513 247° West 461 531 36,000  Level FlightAware ADS-B
Tue 09:44:50 PM 55.1727 13.6471 247° West 462 532 36,000  Level FlightAware ADS-B
Tue 09:45:20 PM 55.1477 13.5457 247° West 462 532 36,000  Level FlightAware ADS-B
Tue 09:45:50 PM 55.1222 13.4429 247° West 463 533 36,000  Level FlightAware ADS-B
Tue 09:46:29 PM 55.0894 13.3113 247° West 464 534 36,000  Level FlightAware ADS-B
Tue 09:47:10 PM 55.0535 13.1681 246° West 465 535 36,000  Level FlightAware ADS-B
Tue 09:47:49 PM 55.0213 13.0409 246° West 460 529 36,000  Level FlightAware ADS-B
Tue 09:48:20 PM 54.9935 12.9312 246° West 456 525 36,000  Level FlightAware ADS-B
Tue 09:48:59 PM 54.9601 12.7999 246° West 455 524 36,000  Level FlightAware ADS-B
Tue 09:49:30 PM 54.9355 12.7040 246° West 454 522 36,000  Level FlightAware ADS-B
Tue 09:50:09 PM 54.9003 12.5673 246° West 454 522 36,000  Level FlightAware ADS-B
Tue 09:50:40 PM 54.8741 12.4662 246° West 454 522 36,000  Level FlightAware ADS-B
Tue 09:51:20 PM 54.8399 12.3347 246° West 455 524 36,000  Level FlightAware ADS-B
Tue 09:51:50 PM 54.8147 12.2384 246° West 455 524 36,000  Level FlightAware ADS-B
Tue 09:52:20 PM 54.7870 12.1329 245° Southwest 454 522 36,000  Level FlightAware ADS-B
Tue 09:52:59 PM 54.7534 12.0056 246° West 455 524 36,000  Level FlightAware ADS-B
Tue 09:53:30 PM 54.7262 11.9030 245° Southwest 455 524 36,000  Level FlightAware ADS-B
Tue 09:54:00 PM 54.7006 11.8069 245° Southwest 454 522 36,000  Level FlightAware ADS-B
Tue 09:54:30 PM 54.6750 11.7113 245° Southwest 454 522 36,000  Level FlightAware ADS-B
Tue 09:55:00 PM 54.6487 11.6135 245° Southwest 455 524 36,000  Level FlightAware ADS-B
Tue 09:55:30 PM 54.6215 11.5129 245° Southwest 455 524 36,000  Level FlightAware ADS-B
Tue 09:56:08 PM 54.5868 11.3853 245° Southwest 454 522 36,000  Level FlightAware ADS-B
Tue 09:56:40 PM 54.5588 11.2831 245° Southwest 453 521 36,000  Level FlightAware ADS-B
Tue 09:57:29 PM 54.5146 11.1220 245° Southwest 455 524 36,000  Level FlightAware ADS-B
Tue 09:58:00 PM 54.4866 11.0204 245° Southwest 455 524 36,000  Level FlightAware ADS-B
Tue 09:58:40 PM 54.4509 10.8914 244° Southwest 454 522 36,000  Level FlightAware ADS-B
Tue 09:59:10 PM 54.4241 10.7951 245° Southwest 455 524 36,000  Level FlightAware ADS-B
Tue 09:59:43 PM 54.3934 10.6851 244° Southwest 454 522 36,000  Level FlightAware ADS-B
Tue 10:00:20 PM 54.3606 10.5686 244° Southwest 454 522 36,000  Level FlightAware ADS-B
Tue 10:00:53 PM 54.3333 10.4723 244° Southwest 454 522 36,000  Level FlightAware ADS-B
Tue 10:01:23 PM 54.3021 10.3624 244° Southwest 454 522 36,000  Level FlightAware ADS-B
Tue 10:01:53 PM 54.2757 10.2699 244° Southwest 453 521 36,000  Level FlightAware ADS-B
Tue 10:02:23 PM 54.2484 10.1750 244° Southwest 452 520 36,000  Level FlightAware ADS-B
Tue 10:02:53 PM 54.2206 10.0782 244° Southwest 451 519 36,000  Level FlightAware ADS-B
Tue 10:03:23 PM 54.1926 9.9810 244° Southwest 452 520 36,000  Level FlightAware ADS-B
Tue 10:03:53 PM 54.1644 9.8837 244° Southwest 452 520 36,000  Level FlightAware ADS-B
Tue 10:04:23 PM 54.1369 9.7891 244° Southwest 454 522 36,000  Level FlightAware ADS-B
Tue 10:04:53 PM 54.1104 9.6981 244° Southwest 457 526 36,000  Level FlightAware ADS-B
Tue 10:05:23 PM 54.0799 9.5945 243° Southwest 458 527 36,000  Level FlightAware ADS-B
Tue 10:05:53 PM 54.0519 9.4990 243° Southwest 460 529 36,000  Level FlightAware ADS-B
Tue 10:06:23 PM 54.0244 9.4062 243° Southwest 460 529 36,000  Level FlightAware ADS-B
Tue 10:07:13 PM 53.9755 9.2417 243° Southwest 460 529 36,000  Level FlightAware ADS-B
Tue 10:07:43 PM 53.9478 9.1491 243° Southwest 459 528 36,000  Level FlightAware ADS-B
Tue 10:08:13 PM 53.9183 9.0510 243° Southwest 459 528 36,000  Level FlightAware ADS-B
Tue 10:08:43 PM 53.8892 8.9544 243° Southwest 458 527 36,000  Level FlightAware ADS-B
Tue 10:09:13 PM 53.8595 8.8565 243° Southwest 459 528 36,000  Level FlightAware ADS-B
Tue 10:09:53 PM 53.8213 8.7310 243° Southwest 458 527 36,000  Level FlightAware ADS-B
Tue 10:10:23 PM 53.7932 8.6393 243° Southwest 457 526 36,000  Level FlightAware ADS-B
Tue 10:10:53 PM 53.7630 8.5408 243° Southwest 456 525 36,000  Level FlightAware ADS-B
Tue 10:11:23 PM 53.7345 8.4481 243° Southwest 456 525 36,000  Level FlightAware ADS-B
Tue 10:11:53 PM 53.7051 8.3527 243° Southwest 457 526 36,000  Level FlightAware ADS-B
Tue 10:12:23 PM 53.6755 8.2574 242° Southwest 457 526 36,000  Level FlightAware ADS-B
Tue 10:12:54 PM 53.6452 8.1599 242° Southwest 458 527 36,000  Level FlightAware ADS-B
Tue 10:13:24 PM 53.6158 8.0662 242° Southwest 457 526 36,000  Level FlightAware ADS-B
Tue 10:13:54 PM 53.5865 7.9733 242° Southwest 457 526 36,000  Level FlightAware ADS-B
Tue 10:14:24 PM 53.5563 7.8773 242° Southwest 457 526 36,000  Level FlightAware ADS-B
Tue 10:14:54 PM 53.5278 7.7872 242° Southwest 458 527 36,000  Level FlightAware ADS-B
Tue 10:15:24 PM 53.4969 7.6899 242° Southwest 458 527 36,000  Level FlightAware ADS-B
Tue 10:15:55 PM 53.4672 7.5968 242° Southwest 456 525 36,000  Level FlightAware ADS-B
Tue 10:16:26 PM 53.4355 7.4981 242° Southwest 456 525 36,000  Level FlightAware ADS-B
Tue 10:16:34 PM 53.4283 7.4757 243° Southwest 453 521 36,000  Level FlightAware ADS-B
Tue 10:17:04 PM 53.4156 7.4361 242° Southwest 454 522 36,000  Level FlightAware ADS-B
Tue 10:17:36 PM 53.3667 7.2847 242° Southwest 455 524 36,000  Level FlightAware ADS-B
Tue 10:18:15 PM 53.3273 7.1632 242° Southwest 454 522 36,000  Level FlightAware ADS-B
Tue 10:18:47 PM 53.2951 7.0644 242° Southwest 452 520 36,000  Level FlightAware ADS-B
Tue 10:19:17 PM 53.2649 6.9719 241° Southwest 452 520 36,000  Level FlightAware ADS-B
Tue 10:19:47 PM 53.2343 6.8791 241° Southwest 451 519 36,000  Level FlightAware ADS-B
Tue 10:19:58 PM 53.2237 6.8467 242° Southwest 447 514 36,000  Level FlightAware ADS-B
Tue 10:20:37 PM 53.1801 6.7336 233° Southwest 456 525 36,000  Level FlightAware ADS-B
Tue 10:21:13 PM 53.1339 6.6430 227° Southwest 461 531 36,000  Level FlightAware ADS-B
Tue 10:21:46 PM 53.0801 6.5537 227° Southwest 466 536 36,000  Level FlightAware UK
Tue 10:21:47 PM 53.0793 6.5576 222° Southwest 465 535 36,000  Level FlightAware ADS-B
Tue 10:22:18 PM 53.0257 6.4821 222° Southwest 463 533 36,000  Level FlightAware ADS-B
Tue 10:22:48 PM 52.9806 6.4168 221° Southwest 463 533 36,000  Level FlightAware ADS-B
Tue 10:23:30 PM 52.9102 6.3190 220° Southwest 463 533 36,000  Level FlightAware ADS-B
Tue 10:23:51 PM 52.8752 6.2715 220° Southwest 458 527 36,000  Level FlightAware ADS-B
Tue 10:24:01 PM 52.8587 6.2491 219° Southwest 464 534 36,000  Level FlightAware ADS-B
Tue 10:24:11 PM 52.8455 6.2314 219° Southwest 464 534 36,000  Level FlightAware ADS-B
Tue 10:24:20 PM 52.8272 6.2066 219° Southwest 464 534 36,000  Level FlightAware ADS-B
Tue 10:24:42 PM 52.7904 6.1570 219° Southwest 464 534 36,000  Level FlightAware ADS-B
Tue 10:25:03 PM 52.7568 6.1119 220° Southwest 457 526 36,000  Level FlightAware ADS-B
Tue 10:25:12 PM 52.7416 6.0915 220° Southwest 457 526 36,000  Level FlightAware ADS-B
Tue 10:25:22 PM 52.7256 6.0700 220° Southwest 457 526 36,000  Level FlightAware ADS-B
Tue 10:25:27 PM 52.7160 6.0572 219° Southwest 464 534 36,000  Level FlightAware ADS-B
Tue 10:25:32 PM 52.7086 6.0472 220° Southwest 458 527 36,000  Level FlightAware ADS-B
Tue 10:25:53 PM 52.6728 5.9993 220° Southwest 459 528 36,000  Level FlightAware ADS-B (EGHH / BOH)
Tue 10:26:23 PM 52.6215 5.9308 219° Southwest 466 536 36,000  Level FlightAware ADS-B
Tue 10:26:33 PM 52.6072 5.9118 220° Southwest 460 529 36,000  Level FlightAware ADS-B
Tue 10:26:43 PM 52.5901 5.8890 220° Southwest 460 529 36,000  Level FlightAware ADS-B
Tue 10:26:54 PM 52.5714 5.8639 220° Southwest 459 528 36,000  Level FlightAware ADS-B
Tue 10:27:04 PM 52.5563 5.8437 220° Southwest 459 528 36,000  Level FlightAware ADS-B
Tue 10:27:36 PM 52.5025 5.7725 220° Southwest 459 528 36,000  Level FlightAware ADS-B
Tue 10:28:08 PM 52.4469 5.6990 220° Southwest 460 529 36,000  Level FlightAware ADS-B
Tue 10:28:23 PM 52.4244 5.6693 219° Southwest 467 537 36,000  Level FlightAware ADS-B
Tue 10:28:53 PM 52.3721 5.6005 219° Southwest 467 537 36,000  Level FlightAware ADS-B
Tue 10:29:23 PM 52.3211 5.5337 219° Southwest 467 537 36,000  Level FlightAware ADS-B
Tue 10:29:26 PM 52.3172 5.5286 220° Southwest 461 531 36,000  Level FlightAware ADS-B
Tue 10:29:57 PM 52.2652 5.4604 219° Southwest 468 539 36,000  Level FlightAware ADS-B
Tue 10:30:27 PM 52.2164 5.3970 219° Southwest 470 541 36,000  Level FlightAware ADS-B
Tue 10:31:01 PM 52.1560 5.3184 219° Southwest 472 543 36,000  Level FlightAware ADS-B
Tue 10:31:33 PM 52.1010 5.2472 219° Southwest 473 544 36,000  Level FlightAware ADS-B
Tue 10:32:03 PM 52.0493 5.1804 219° Southwest 474 545 36,000  Level FlightAware ADS-B
Tue 10:32:12 PM 52.0358 5.1629 219° Southwest 474 545 36,000  Level FlightAware ADS-B
Tue 10:32:42 PM 51.9850 5.0977 218° Southwest 473 544 36,000  Level FlightAware ADS-B
Tue 10:33:19 PM 51.9394 5.0393 218° Southwest 472 543 36,000  Level FlightAware ADS-B
Tue 10:33:50 PM 51.8683 4.9484 218° Southwest 471 542 36,000  Level FlightAware ADS-B
Tue 10:34:21 PM 51.8241 4.8921 218° Southwest 471 542 36,000  Level FlightAware ADS-B
Tue 10:34:33 PM 51.7935 4.8535 218° Southwest 471 542 36,000  Level FlightAware ADS-B
Tue 10:34:51 PM 51.7616 4.8171 215° Southwest 468 539 36,000  Level FlightAware ADS-B (EGHH / BOH)
Tue 10:35:12 PM 51.7243 4.7766 215° Southwest 469 540 36,000  Level FlightAware ADS-B
Tue 10:35:22 PM 51.7060 4.7519 215° Southwest 474 545 36,000  Level FlightAware UK
Tue 10:35:34 PM 51.6844 4.7331 215° Southwest 469 540 36,000  Level FlightAware ADS-B
Tue 10:36:06 PM 51.6250 4.6677 215° Southwest 468 539 36,000  Level FlightAware ADS-B (EGHH / BOH)
Tue 10:36:41 PM 51.5609 4.5966 215° Southwest 473 544 36,000  Level FlightAware ADS-B (LRBS / BBU)
Tue 10:37:13 PM 51.5048 4.5347 215° Southwest 473 544 36,000  Level FlightAware ADS-B (EGLF / FAB)
Tue 10:37:43 PM 51.4516 4.4759 215° Southwest 472 543 36,000  Level FlightAware ADS-B (EGLF / FAB)
Tue 10:38:00 PM 51.4199 4.4410 214° Southwest 470 541 36,000  Level FlightAware ADS-B
Tue 10:38:33 PM 51.3619 4.3772 215° Southwest 465 535 36,000  Level FlightAware ADS-B (EGLF / FAB)
Tue 10:38:50 PM 51.3303 4.3427 215° Southwest 456 525 36,000  Level FlightAware ADS-B (EGHH / BOH)
Tue 10:39:05 PM 51.3062 4.3164 215° Southwest 455 524 36,000  Level FlightAware ADS-B
Tue 10:39:25 PM 51.2710 4.2780 214° Southwest 462 532 36,000  Level FlightAware ADS-B
Tue 10:39:45 PM 51.2374 4.2414 215° Southwest 454 522 36,000  Level FlightAware ADS-B
Tue 10:40:02 PM 51.2148 4.2168 215° Southwest 453 521 36,000  Level FlightAware ADS-B
Tue 10:40:21 PM 51.1741 4.1726 214° Southwest 458 527 36,000  Level FlightAware ADS-B (LRBS / BBU)
Tue 10:40:33 PM 51.1532 4.1499 215° Southwest 451 519 36,000  Level FlightAware ADS-B
Tue 10:40:43 PM 51.1340 4.1290 215° Southwest 451 519 36,000  Level FlightAware ADS-B
Tue 10:40:53 PM 51.1172 4.1109 215° Southwest 450 518 36,000  Level FlightAware ADS-B
Tue 10:41:13 PM 51.0816 4.0725 215° Southwest 449 517 36,000  Level FlightAware ADS-B
Tue 10:41:16 PM 51.0765 4.0669 215° Southwest 448 516 36,000  Level FlightAware ADS-B
Tue 10:41:33 PM 51.0465 4.0346 215° Southwest 448 516 36,000  Level FlightAware ADS-B
Tue 10:41:44 PM 51.0272 4.0138 215° Southwest 448 516 36,000 333 Level FlightAware ADS-B
Tue 10:41:51 PM 51.0158 4.0015 214° Southwest 453 521 36,100 649 Climbing FlightAware ADS-B
Tue 10:42:21 PM 50.9635 3.9453 214° Southwest 452 520 36,400 600 Climbing FlightAware ADS-B (EGHH / BOH)
Tue 10:42:41 PM 50.9280 3.9075 214° Southwest 453 521 36,600 720 Climbing FlightAware ADS-B (LRBS / BBU)
Tue 10:42:46 PM 50.9324 3.9122 214° Southwest 454 522 36,700 286 Climbing FlightAware ADS-B
Tue 10:43:02 PM 50.8935 3.8707 214° Southwest 456 525 36,700  Level FlightAware ADS-B (LRBS / BBU)
Tue 10:43:06 PM 50.8875 3.8643 214° Southwest 457 526 36,700 300 Level FlightAware ADS-B
Tue 10:43:22 PM 50.8583 3.8331 214° Southwest 459 528 36,800 300 Climbing FlightAware ADS-B (LRBS / BBU)
Tue 10:43:26 PM 50.8505 3.8247 215° Southwest 454 522 36,800  Level FlightAware ADS-B
Tue 10:43:35 PM 50.8335 3.8065 215° Southwest 455 524 36,800 150 Level FlightAware ADS-B (KSCH)
Tue 10:44:06 PM 50.7795 3.7492 214° Southwest 468 539 36,900 197 Climbing FlightAware ADS-B (EGHH / BOH)
Tue 10:44:36 PM 50.7257 3.6921 214° Southwest 467 537 37,000 98 Climbing FlightAware ADS-B (EGHH / BOH)
Tue 10:45:07 PM 50.6754 3.6388 214° Southwest 466 536 37,000  Level FlightAware ADS-B
Tue 10:45:40 PM 50.6120 3.5693 214° Southwest 460 529 37,000  Level FlightAware UK
Tue 10:45:42 PM 50.6084 3.5682 214° Southwest 461 531 37,000  Level FlightAware ADS-B (LRBS / BBU)
Tue 10:46:12 PM 50.5558 3.5129 214° Southwest 445 512 37,000  Level FlightAware ADS-B (EGHH / BOH)
Tue 10:46:28 PM 50.5287 3.4830 214° Southwest 451 519 37,000  Level FlightAware ADS-B
Tue 10:46:42 PM 50.5063 3.4518 225° Southwest 432 497 37,000  Level FlightAware ADS-B (EGHH / BOH)
Tue 10:47:12 PM 50.4655 3.3869 225° Southwest 437 503 37,000  Level FlightAware ADS-B (EGLF / FAB)
Tue 10:47:23 PM 50.4484 3.3608 225° Southwest 431 496 37,000  Level FlightAware ADS-B
Tue 10:47:43 PM 50.4208 3.3190 225° Southwest 433 498 37,000  Level FlightAware ADS-B
Tue 10:47:53 PM 50.4055 3.2960 225° Southwest 433 498 37,000  Level FlightAware ADS-B
Tue 10:48:03 PM 50.3916 3.2748 225° Southwest 434 499 37,000  Level FlightAware ADS-B
Tue 10:48:13 PM 50.3764 3.2519 225° Southwest 434 499 37,000  Level FlightAware ADS-B
Tue 10:48:32 PM 50.3492 3.2108 225° Southwest 433 498 37,000  Level FlightAware ADS-B
Tue 10:48:50 PM 50.3217 3.1691 225° Southwest 434 499 37,000  Level FlightAware ADS-B (KSCH)
Tue 10:49:01 PM 50.3058 3.1452 225° Southwest 434 499 37,000  Level FlightAware ADS-B
Tue 10:49:33 PM 50.2598 3.0756 224° Southwest 441 507 37,000  Level FlightAware ADS-B (EGLF / FAB)
Tue 10:49:40 PM 50.2486 3.0586 225° Southwest 435 501 37,000  Level FlightAware ADS-B (KSCH)
Tue 10:49:52 PM 50.2323 3.0340 225° Southwest 435 501 37,000  Level FlightAware ADS-B (KSCH)
Tue 10:49:59 PM 50.2214 3.0177 225° Southwest 436 502 37,000  Level FlightAware ADS-B (EGHH / BOH)
Tue 10:50:14 PM 50.1992 2.9842 225° Southwest 436 502 37,000  Level FlightAware ADS-B (EGHH / BOH)
Tue 10:50:23 PM 50.1855 2.9636 225° Southwest 436 502 37,000  Level FlightAware ADS-B (KSCH)
Tue 10:50:33 PM 50.1720 2.9434 225° Southwest 436 502 37,000  Level FlightAware ADS-B (EGHH / BOH)
Tue 10:50:46 PM 50.1532 2.9152 224° Southwest 441 507 37,000  Level FlightAware ADS-B
Tue 10:50:52 PM 50.1429 2.8998 225° Southwest 436 502 37,000  Level FlightAware ADS-B (EGHH / BOH)
Tue 10:51:26 PM 50.0936 2.8261 224° Southwest 443 510 37,000  Level FlightAware ADS-B
Tue 10:52:03 PM 50.0398 2.7456 224° Southwest 445 512 37,000  Level FlightAware ADS-B (EGLF / FAB)
Tue 10:52:33 PM 49.9945 2.6782 224° Southwest 446 513 37,000  Level FlightAware ADS-B (EGLF / FAB)
Tue 10:53:03 PM 49.9500 2.6121 224° Southwest 449 517 37,000  Level FlightAware ADS-B (EGLF / FAB)
Tue 10:53:33 PM 49.9044 2.5447 224° Southwest 451 519 37,000  Level FlightAware ADS-B (EGLF / FAB)
Tue 10:54:03 PM 49.8599 2.4791 224° Southwest 453 521 37,000  Level FlightAware ADS-B (EGLF / FAB)
Tue 10:54:33 PM 49.8157 2.4139 224° Southwest 454 522 37,000  Level FlightAware ADS-B (EGLF / FAB)
Tue 10:55:06 PM 49.7636 2.3376 224° Southwest 451 519 37,000  Level FlightAware ADS-B (KSCH)
Tue 10:55:31 PM 49.7255 2.2818 224° Southwest 451 519 37,000  Level FlightAware ADS-B
Tue 10:56:03 PM 49.6761 2.2097 223° Southwest 458 527 37,000  Level FlightAware ADS-B (EGLF / FAB)
Tue 10:56:33 PM 49.6326 2.1464 223° Southwest 460 529 37,000  Level FlightAware ADS-B (EGLF / FAB)
Tue 10:57:03 PM 49.5842 2.0761 223° Southwest 462 532 37,000  Level FlightAware ADS-B (EGLF / FAB)
Tue 10:57:33 PM 49.5404 2.0127 223° Southwest 464 534 37,000  Level FlightAware ADS-B (EGLF / FAB)
Tue 10:58:03 PM 49.4905 1.9406 223° Southwest 463 533 37,000  Level FlightAware ADS-B (EGLF / FAB)
Tue 10:58:33 PM 49.4435 1.8730 223° Southwest 463 533 37,000  Level FlightAware ADS-B (EGLF / FAB)
Tue 10:59:03 PM 49.3976 1.8070 223° Southwest 463 533 37,000  Level FlightAware ADS-B (EGLF / FAB)
Tue 10:59:33 PM 49.3503 1.7394 223° Southwest 463 533 37,000  Level FlightAware ADS-B (EGLF / FAB)
Tue 11:00:03 PM 49.3027 1.6713 223° Southwest 463 533 37,000  Level FlightAware ADS-B (EGLF / FAB)
Tue 11:00:33 PM 49.2557 1.6044 223° Southwest 462 532 37,000  Level FlightAware ADS-B (EGLF / FAB)
Tue 11:01:03 PM 49.2090 1.5381 223° Southwest 463 533 37,000  Level FlightAware ADS-B (EGLF / FAB)
Tue 11:01:22 PM 49.1850 1.5004 234° Southwest 448 516 37,000  Level FlightAware ADS-B
Tue 11:01:36 PM 49.1669 1.4568 244° Southwest 435 501 37,000  Level FlightAware ADS-B (KSCH)
Tue 11:02:13 PM 49.1386 1.3542 247° West 433 498 37,000  Level FlightAware ADS-B (EGLF / FAB)
Tue 11:02:33 PM 49.1228 1.2973 248° West 430 495 37,000  Level FlightAware ADS-B (KSCH)
Tue 11:03:03 PM 49.0995 1.2133 247° West 434 499 37,000  Level FlightAware ADS-B (EGLF / FAB)
Tue 11:03:34 PM 49.0748 1.1244 247° West 435 501 37,000  Level FlightAware ADS-B (EGLF / FAB)
Tue 11:03:51 PM 49.0654 1.0909 247° West 435 501 37,000  Level FlightAware ADS-B (LFBU / ANG)
Tue 11:04:03 PM 49.0527 1.0452 247° West 435 501 37,000  Level FlightAware ADS-B (LFBU / ANG)
Tue 11:04:23 PM 49.0363 0.9866 247° West 434 499 37,000  Level FlightAware ADS-B
Tue 11:04:54 PM 49.0135 0.9052 247° West 434 499 37,000  Level FlightAware ADS-B (EGLF / FAB)
Tue 11:05:29 PM 48.9852 0.8050 248° West 431 496 37,000  Level FlightAware ADS-B (KSCH)
Tue 11:05:54 PM 48.9644 0.7315 247° West 435 501 37,000  Level FlightAware ADS-B (EGLF / FAB)
Tue 11:06:24 PM 48.9407 0.6478 247° West 436 502 37,000  Level FlightAware ADS-B (EGLF / FAB)
Tue 11:06:49 PM 48.9213 0.5800 248° West 433 498 37,000  Level FlightAware ADS-B (KSCH)
Tue 11:07:13 PM 48.9013 0.5102 248° West 434 499 37,000  Level FlightAware ADS-B (KSCH)
Tue 11:07:44 PM 48.8772 0.4263 246° West 438 504 37,000  Level FlightAware ADS-B (EGLF / FAB)
Tue 11:08:14 PM 48.8522 0.3382 246° West 438 504 37,000  Level FlightAware UK
Tue 11:08:14 PM 48.8524 0.3406 246° West 439 505 37,000  Level FlightAware ADS-B (EGLF / FAB)
Tue 11:08:44 PM 48.8279 0.2538 246° West 440 506 37,000  Level FlightAware UK
Tue 11:08:44 PM 48.8274 0.2541 246° West 440 506 37,000  Level FlightAware ADS-B (EGLF / FAB)
Tue 11:09:20 PM 48.7984 0.1529 246° West 440 506 37,000  Level FlightAware UK
Tue 11:09:27 PM 48.8206 0.2307 246° West 440 506 37,000  Level FlightAware ADS-B (EGHS)
Tue 11:09:58 PM 48.7675 0.0480 246° West 441 507 37,000  Level FlightAware ADS-B (LFBU / ANG)
Tue 11:10:29 PM 48.7421 -0.0388 246° West 440 506 37,000  Level FlightAware ADS-B
Tue 11:11:00 PM 48.7169 -0.1247 246° West 438 504 37,000  Level FlightAware ADS-B (LFBU / ANG)
Tue 11:11:30 PM 48.6914 -0.2108 246° West 437 503 37,000  Level FlightAware ADS-B (LFBU / ANG)
Tue 11:12:02 PM 48.6650 -0.3003 246° West 436 502 37,000  Level FlightAware UK
Tue 11:12:08 PM 48.6611 -0.3128 246° West 436 502 37,000  Level FlightAware ADS-B (EGLF / FAB)
Tue 11:12:41 PM 48.6338 -0.4050 246° West 436 502 37,000  Level FlightAware ADS-B (LFBU / ANG)
Tue 11:13:11 PM 48.6081 -0.4913 246° West 436 502 37,000  Level FlightAware ADS-B (KSCH)
Tue 11:13:42 PM 48.5839 -0.5723 246° West 437 503 37,000  Level FlightAware ADS-B (LFBU / ANG)
Tue 11:14:12 PM 48.5583 -0.6575 246° West 438 504 37,000  Level FlightAware ADS-B (LFBU / ANG)
Tue 11:14:43 PM 48.5322 -0.7441 246° West 440 506 37,000  Level FlightAware ADS-B (LFBU / ANG)
Tue 11:15:13 PM 48.5060 -0.8307 246° West 441 507 37,000  Level FlightAware ADS-B (LFBU / ANG)
Tue 11:15:44 PM 48.4796 -0.9176 245° Southwest 442 509 37,000  Level FlightAware ADS-B (EGLF / FAB)
Tue 11:15:54 PM 48.4729 -0.9398 246° West 439 505 37,000  Level FlightAware ADS-B (KSCH)
Tue 11:16:18 PM 48.4515 -1.0100 246° West 440 506 37,000  Level FlightAware ADS-B (KSCH)
Tue 11:16:23 PM 48.4471 -1.0243 245° Southwest 443 510 37,000  Level FlightAware ADS-B
Tue 11:16:42 PM 48.4304 -1.0791 246° West 440 506 37,000  Level FlightAware ADS-B (KSCH)
Tue 11:16:54 PM 48.4202 -1.1125 246° West 440 506 37,000  Level FlightAware ADS-B (KSCH)
Tue 11:17:23 PM 48.3967 -1.1890 246° West 441 507 37,000  Level FlightAware ADS-B (KSCH)
Tue 11:17:35 PM 48.3852 -1.2265 246° West 441 507 37,000  Level FlightAware ADS-B (KSCH)
Tue 11:18:10 PM 48.3555 -1.3225 246° West 441 507 37,000  Level FlightAware ADS-B (KSCH)
Tue 11:18:44 PM 48.3255 -1.4194 245° Southwest 445 512 37,000  Level FlightAware ADS-B (LFBU / ANG)
Tue 11:19:13 PM 48.3003 -1.5009 246° West 441 507 37,000  Level FlightAware ADS-B (KSCH)
Tue 11:19:24 PM 48.2908 -1.5313 246° West 441 507 37,000  Level FlightAware ADS-B (KSCH)
Tue 11:19:54 PM 48.2662 -1.6100 245° Southwest 445 512 37,000  Level FlightAware ADS-B (EGLF / FAB)
Tue 11:20:14 PM 48.2474 -1.6698 245° Southwest 445 512 37,000  Level FlightAware ADS-B (LFBU / ANG)
Tue 11:20:25 PM 48.2384 -1.6986 246° West 442 509 37,000  Level FlightAware ADS-B (KSCH)
Tue 11:20:36 PM 48.2281 -1.7316 246° West 441 507 37,000  Level FlightAware ADS-B (KSCH)
Tue 11:21:06 PM 48.2024 -1.8132 245° Southwest 443 510 37,000  Level FlightAware ADS-B (LFBU / ANG)
Tue 11:21:37 PM 48.1752 -1.8993 245° Southwest 442 509 37,000  Level FlightAware ADS-B (EGLF / FAB)
Tue 11:22:07 PM 48.1497 -1.9797 245° Southwest 441 507 37,000  Level FlightAware ADS-B (LFBU / ANG)
Tue 11:22:13 PM 48.1438 -1.9983 245° Southwest 440 506 37,000  Level FlightAware ADS-B (EGJJ / JER)
Tue 11:22:27 PM 48.1329 -2.0325 245° Southwest 440 506 37,000  Level FlightAware ADS-B (LFBU / ANG)
Tue 11:23:02 PM 48.1012 -2.1320 245° Southwest 439 505 37,000  Level FlightAware ADS-B (LFBU / ANG)
Tue 11:23:32 PM 48.0746 -2.2153 244° Southwest 439 505 37,000  Level FlightAware ADS-B (LFBU / ANG)
Tue 11:24:04 PM 48.0465 -2.3027 245° Southwest 437 503 37,000  Level FlightAware ADS-B (KSCH)
Tue 11:24:37 PM 48.0184 -2.3901 244° Southwest 441 507 37,000  Level FlightAware ADS-B (LFBU / ANG)
Tue 11:25:08 PM 47.9911 -2.4745 244° Southwest 441 507 37,000  Level FlightAware ADS-B (LFBU / ANG)
Tue 11:25:40 PM 47.9619 -2.5648 244° Southwest 440 506 37,000  Level FlightAware ADS-B (KSCH)
Tue 11:26:17 PM 47.9291 -2.6656 244° Southwest 439 505 37,000  Level FlightAware ADS-B (LFBU / ANG)
Tue 11:26:52 PM 47.8981 -2.7605 244° Southwest 439 505 37,000  Level FlightAware ADS-B (KSCH)
Tue 11:27:28 PM 47.8668 -2.8560 244° Southwest 440 506 37,000  Level FlightAware ADS-B (LFBU / ANG)
Tue 11:28:00 PM 47.8394 -2.9393 244° Southwest 440 506 37,000  Level FlightAware ADS-B (LFBU / ANG)
Tue 11:28:30 PM 47.8110 -3.0255 244° Southwest 440 506 37,000  Level FlightAware ADS-B (LFBU / ANG)
Tue 11:29:00 PM 47.7837 -3.1080 244° Southwest 439 505 37,000  Level FlightAware ADS-B (LFBU / ANG)
Tue 11:29:31 PM 47.7567 -3.1893 244° Southwest 439 505 37,000  Level FlightAware ADS-B (LFBU / ANG)
Tue 11:30:05 PM 47.7255 -3.2829 244° Southwest 439 505 37,000  Level FlightAware ADS-B (LFBU / ANG)
Tue 11:30:36 PM 47.6986 -3.3633 244° Southwest 439 505 37,000  Level FlightAware ADS-B (LFBU / ANG)
Tue 11:31:11 PM 47.6687 -3.4520 244° Southwest 439 505 37,000  Level FlightAware ADS-B (LFBU / ANG)
Tue 11:31:41 PM 47.6390 -3.5403 244° Southwest 439 505 37,000  Level FlightAware ADS-B (LFBU / ANG)
Tue 11:32:15 PM 47.6080 -3.6319 243° Southwest 440 506 37,000  Level FlightAware ADS-B (LFBU / ANG)
Tue 11:32:51 PM 47.5819 -3.7087 243° Southwest 440 506 37,000  Level FlightAware ADS-B (LFBU / ANG)
Tue 11:33:21 PM 47.5498 -3.8031 243° Southwest 441 507 37,000  Level FlightAware ADS-B (LFBU / ANG)
Tue 11:34:12 PM 47.5011 -3.9457 243° Southwest 441 507 37,000  Level FlightAware ADS-B (LFBU / ANG)
Tue 11:34:44 PM 47.4723 -4.0299 243° Southwest 442 509 37,000  Level FlightAware ADS-B (LFBU / ANG)
Tue 11:35:14 PM 47.4479 -4.1009 243° Southwest 442 509 37,000  Level FlightAware ADS-B (LFBU / ANG)
Tue 11:36:27 PM 47.3764 -4.3075 243° Southwest 441 507 37,000  Level FlightAware ADS-B (LFBU / ANG)
Tue 11:41:27 PM 47.0970 -5.0994 242° Southwest 442 509 37,000  Level FlightAware ADS-B (LFBU / ANG)
Tue 11:42:05 PM 47.0584 -5.2071 242° Southwest 442 509 37,000 -9 Level FlightAware ADS-B (LFBU / ANG)
Tue 11:44:00 PM 47.0204 -5.6828 263° West  Level Estimated
Tue 11:45:00 PM 46.9998 -5.9308 263° West  Level Estimated
Tue 11:46:00 PM 46.9787 -6.1785 263° West  Level Estimated
Tue 11:47:00 PM 46.9570 -6.4260 263° West  Level Estimated
Tue 11:48:00 PM 46.9348 -6.6734 263° West  Level Estimated
Tue 11:49:00 PM 46.9121 -6.9205 262° West  Level Estimated
Tue 11:50:00 PM 46.8889 -7.1674 262° West  Level Estimated
Tue 11:51:00 PM 46.8651 -7.4141 262° West  Level Estimated
Tue 11:52:00 PM 46.8408 -7.6606 262° West  Level Estimated
Tue 11:53:00 PM 46.8159 -7.9069 262° West  Level Estimated
Tue 11:54:00 PM 46.7906 -8.1529 262° West  Level Estimated
Tue 11:55:00 PM 46.7647 -8.3987 261° West  Level Estimated
Tue 11:56:00 PM 46.7382 -8.6443 261° West  Level Estimated
Tue 11:57:00 PM 46.7113 -8.8896 261° West  Level Estimated
Tue 11:58:00 PM 46.6838 -9.1346 261° West  Level Estimated
Tue 11:59:00 PM 46.6558 -9.3794 261° West  Level Estimated
Wed 12:00:00 AM 46.6273 -9.6240 260° West  Level Estimated
Wed 12:01:00 AM 46.5983 -9.8683 260° West  Level Estimated
Wed 12:02:00 AM 46.5687 -10.1123 260° West  Level Estimated
Wed 12:03:00 AM 46.5387 -10.3561 260° West  Level Estimated
Wed 12:04:00 AM 46.5081 -10.5996 260° West  Level Estimated
Wed 12:05:00 AM 46.4770 -10.8428 260° West  Level Estimated
Wed 12:06:00 AM 46.4453 -11.0857 259° West  Level Estimated
Wed 12:07:00 AM 46.4132 -11.3284 259° West  Level Estimated
Wed 12:08:00 AM 46.3806 -11.5708 259° West  Level Estimated
Wed 12:09:00 AM 46.3474 -11.8128 259° West  Level Estimated
Wed 12:10:00 AM 46.3137 -12.0546 259° West  Level Estimated
Wed 12:11:00 AM 46.2795 -12.2961 259° West  Level Estimated
Wed 12:12:00 AM 46.2449 -12.5373 258° West  Level Estimated
Wed 12:13:00 AM 46.2097 -12.7781 258° West  Level Estimated
Wed 12:14:00 AM 46.1740 -13.0187 258° West  Level Estimated
Wed 12:15:00 AM 46.1378 -13.2589 258° West  Level Estimated
Wed 12:16:00 AM 46.1011 -13.4989 258° West  Level Estimated
Wed 12:17:00 AM 46.0639 -13.7385 257° West  Level Estimated
Wed 12:18:00 AM 46.0262 -13.9777 257° West  Level Estimated
Wed 12:19:00 AM 45.9880 -14.2167 257° West  Level Estimated
Wed 12:20:00 AM 45.9493 -14.4553 257° West  Level Estimated
Wed 12:21:00 AM 45.9101 -14.6936 257° West  Level Estimated
Wed 12:22:00 AM 45.8704 -14.9315 257° West  Level Estimated
Wed 12:23:00 AM 45.8302 -15.1691 256° West  Level Estimated
Wed 12:24:00 AM 45.7895 -15.4064 256° West  Level Estimated
Wed 12:25:00 AM 45.7483 -15.6433 256° West  Level Estimated
Wed 12:26:00 AM 45.7067 -15.8799 256° West  Level Estimated
Wed 12:27:00 AM 45.6646 -16.1161 256° West  Level Estimated
Wed 12:28:00 AM 45.6219 -16.3519 256° West  Level Estimated
Wed 12:29:00 AM 45.5788 -16.5874 255° West  Level Estimated
Wed 12:30:00 AM 45.5352 -16.8225 255° West  Level Estimated
Wed 12:31:00 AM 45.4911 -17.0573 255° West  Level Estimated
Wed 12:32:00 AM 45.4466 -17.2917 255° West  Level Estimated
Wed 12:33:00 AM 45.4015 -17.5257 255° West  Level Estimated
Wed 12:34:00 AM 45.3560 -17.7593 255° West  Level Estimated
Wed 12:35:00 AM 45.3100 -17.9926 254° West  Level Estimated
Wed 12:36:00 AM 45.2636 -18.2255 254° West  Level Estimated
Wed 12:37:00 AM 45.2166 -18.4580 254° West  Level Estimated
Wed 12:38:00 AM 45.1692 -18.6901 254° West  Level Estimated
Wed 12:39:00 AM 45.1213 -18.9218 254° West  Level Estimated
Wed 12:40:00 AM 45.0730 -19.1532 254° West  Level Estimated
Wed 12:41:00 AM 45.0242 -19.3841 253° West  Level Estimated
Wed 12:42:00 AM 44.9749 -19.6147 253° West  Level Estimated
Wed 12:43:00 AM 44.9252 -19.8448 253° West  Level Estimated
Wed 12:44:00 AM 44.8750 -20.0746 253° West  Level Estimated
Wed 12:45:00 AM 44.8243 -20.3039 253° West  Level Estimated
Wed 12:46:00 AM 44.7732 -20.5328 253° West  Level Estimated
Wed 12:47:00 AM 44.7216 -20.7614 252° West  Level Estimated
Wed 12:48:00 AM 44.6696 -20.9895 252° West  Level Estimated
Wed 12:49:00 AM 44.6171 -21.2172 252° West  Level Estimated
Wed 12:50:00 AM 44.5642 -21.4445 252° West  Level Estimated
Wed 12:51:00 AM 44.5108 -21.6714 252° West  Level Estimated
Wed 12:52:00 AM 44.4570 -21.8979 252° West  Level Estimated
Wed 12:53:00 AM 44.4027 -22.1239 251° West  Level Estimated
Wed 12:54:00 AM 44.3480 -22.3496 251° West  Level Estimated
Wed 12:55:00 AM 44.2928 -22.5748 251° West  Level Estimated
Wed 12:56:00 AM 44.2372 -22.7996 251° West  Level Estimated
Wed 12:57:00 AM 44.1811 -23.0239 251° West  Level Estimated
Wed 12:58:00 AM 44.1246 -23.2479 251° West  Level Estimated
Wed 12:59:00 AM 44.0677 -23.4714 251° West  Level Estimated
Wed 01:00:00 AM 44.0104 -23.6944 250° West  Level Estimated
Wed 01:01:00 AM 43.9526 -23.9171 250° West  Level Estimated
Wed 01:02:00 AM 43.8944 -24.1393 250° West  Level Estimated
Wed 01:03:00 AM 43.8357 -24.3610 250° West  Level Estimated
Wed 01:04:00 AM 43.7766 -24.5824 250° West  Level Estimated
Wed 01:05:00 AM 43.7171 -24.8033 250° West  Level Estimated
Wed 01:06:00 AM 43.6572 -25.0237 249° West  Level Estimated
Wed 01:07:00 AM 43.5968 -25.2437 249° West  Level Estimated
Wed 01:08:00 AM 43.5360 -25.4633 249° West  Level Estimated
Wed 01:09:00 AM 43.4749 -25.6824 249° West  Level Estimated
Wed 01:10:00 AM 43.4132 -25.9011 249° West  Level Estimated
Wed 01:11:00 AM 43.3512 -26.1193 249° West  Level Estimated
Wed 01:12:00 AM 43.2888 -26.3371 249° West  Level Estimated
Wed 01:13:00 AM 43.2259 -26.5545 248° West  Level Estimated
Wed 01:14:00 AM 43.1627 -26.7714 248° West  Level Estimated
Wed 01:15:00 AM 43.0990 -26.9878 248° West  Level Estimated
Wed 01:16:00 AM 43.0349 -27.2038 248° West  Level Estimated
Wed 01:17:00 AM 42.9704 -27.4193 248° West  Level Estimated
Wed 01:18:00 AM 42.9055 -27.6344 248° West  Level Estimated
Wed 01:19:00 AM 42.8402 -27.8490 248° West  Level Estimated
Wed 01:20:00 AM 42.7745 -28.0632 247° West  Level Estimated
Wed 01:21:00 AM 42.7085 -28.2769 247° West  Level Estimated
Wed 01:22:00 AM 42.6420 -28.4902 247° West  Level Estimated
Wed 01:23:00 AM 42.5751 -28.7030 247° West  Level Estimated
Wed 01:24:00 AM 42.5078 -28.9154 247° West  Level Estimated
Wed 01:25:00 AM 42.4402 -29.1273 247° West  Level Estimated
Wed 01:26:00 AM 42.3721 -29.3387 247° West  Level Estimated
Wed 01:27:00 AM 42.3036 -29.5497 246° West  Level Estimated
Wed 01:28:00 AM 42.2348 -29.7602 246° West  Level Estimated
Wed 01:29:00 AM 42.1656 -29.9702 246° West  Level Estimated
Wed 01:30:00 AM 42.0960 -30.1798 246° West  Level Estimated
Wed 01:31:00 AM 42.0260 -30.3890 246° West  Level Estimated
Wed 01:32:00 AM 41.9557 -30.5976 246° West  Level Estimated
Wed 01:33:00 AM 41.8849 -30.8058 246° West  Level Estimated
Wed 01:34:00 AM 41.8139 -31.0136 245° Southwest  Level Estimated
Wed 01:35:00 AM 41.7424 -31.2209 245° Southwest  Level Estimated
Wed 01:36:00 AM 41.6705 -31.4277 245° Southwest  Level Estimated
Wed 01:37:00 AM 41.5983 -31.6341 245° Southwest  Level Estimated
Wed 01:38:00 AM 41.5257 -31.8400 245° Southwest  Level Estimated
Wed 01:39:00 AM 41.4528 -32.0454 245° Southwest  Level Estimated
Wed 01:40:00 AM 41.3794 -32.2504 245° Southwest  Level Estimated
Wed 01:41:00 AM 41.3058 -32.4549 244° Southwest  Level Estimated
Wed 01:42:00 AM 41.2317 -32.6590 244° Southwest  Level Estimated
Wed 01:43:00 AM 41.1573 -32.8625 244° Southwest  Level Estimated
Wed 01:44:00 AM 41.0825 -33.0657 244° Southwest  Level Estimated
Wed 01:45:00 AM 41.0074 -33.2683 244° Southwest  Level Estimated
Wed 01:46:00 AM 40.9319 -33.4705 244° Southwest  Level Estimated
Wed 01:47:00 AM 40.8561 -33.6723 244° Southwest  Level Estimated
Wed 01:48:00 AM 40.7799 -33.8735 243° Southwest  Level Estimated
Wed 01:49:00 AM 40.7034 -34.0743 243° Southwest  Level Estimated
Wed 01:50:00 AM 40.6265 -34.2747 243° Southwest  Level Estimated
Wed 01:51:00 AM 40.5493 -34.4746 243° Southwest  Level Estimated
Wed 01:52:00 AM 40.4718 -34.6740 243° Southwest  Level Estimated
Wed 01:53:00 AM 40.3939 -34.8730 243° Southwest  Level Estimated
Wed 01:54:00 AM 40.3156 -35.0715 243° Southwest  Level Estimated
Wed 01:55:00 AM 40.2370 -35.2695 243° Southwest  Level Estimated
Wed 01:56:00 AM 40.1581 -35.4671 242° Southwest  Level Estimated
Wed 01:57:00 AM 40.0789 -35.6642 242° Southwest  Level Estimated
Wed 01:58:00 AM 39.9993 -35.8609 242° Southwest  Level Estimated
Wed 01:59:00 AM 39.9194 -36.0571 242° Southwest  Level Estimated
Wed 02:00:00 AM 39.8391 -36.2529 242° Southwest  Level Estimated
Wed 02:01:00 AM 39.7586 -36.4482 242° Southwest  Level Estimated
Wed 02:02:00 AM 39.6777 -36.6430 242° Southwest  Level Estimated
Wed 02:03:00 AM 39.5964 -36.8374 242° Southwest  Level Estimated
Wed 02:04:00 AM 39.5149 -37.0313 241° Southwest  Level Estimated
Wed 02:05:00 AM 39.4330 -37.2247 241° Southwest  Level Estimated
Wed 02:06:00 AM 39.3508 -37.4178 241° Southwest  Level Estimated
Wed 02:07:00 AM 39.2683 -37.6103 241° Southwest  Level Estimated
Wed 02:08:00 AM 39.1855 -37.8024 241° Southwest  Level Estimated
Wed 02:09:00 AM 39.1023 -37.9940 241° Southwest  Level Estimated
Wed 02:10:00 AM 39.0189 -38.1852 241° Southwest  Level Estimated
Wed 02:11:00 AM 38.9351 -38.3760 241° Southwest  Level Estimated
Wed 02:12:00 AM 38.8511 -38.5663 240° Southwest  Level Estimated
Wed 02:13:00 AM 38.7667 -38.7561 240° Southwest  Level Estimated
Wed 02:14:00 AM 38.6820 -38.9455 240° Southwest  Level Estimated
Wed 02:15:00 AM 38.5970 -39.1345 240° Southwest  Level Estimated
Wed 02:16:00 AM 38.5117 -39.3230 240° Southwest  Level Estimated
Wed 02:17:00 AM 38.4261 -39.5110 240° Southwest  Level Estimated
Wed 02:18:00 AM 38.3402 -39.6986 240° Southwest  Level Estimated
Wed 02:19:00 AM 38.2540 -39.8858 240° Southwest  Level Estimated
Wed 02:20:00 AM 38.1675 -40.0725 240° Southwest  Level Estimated
Wed 02:21:00 AM 38.0807 -40.2588 239° Southwest  Level Estimated
Wed 02:22:00 AM 37.9936 -40.4446 239° Southwest  Level Estimated
Wed 02:23:00 AM 37.9063 -40.6300 239° Southwest  Level Estimated
Wed 02:24:00 AM 37.8186 -40.8149 239° Southwest  Level Estimated
Wed 02:25:00 AM 37.7307 -40.9994 239° Southwest  Level Estimated
Wed 02:26:00 AM 37.6424 -41.1835 239° Southwest  Level Estimated
Wed 02:27:00 AM 37.5539 -41.3671 239° Southwest  Level Estimated
Wed 02:28:00 AM 37.4651 -41.5503 239° Southwest  Level Estimated
Wed 02:29:00 AM 37.3760 -41.7331 239° Southwest  Level Estimated
Wed 02:30:00 AM 37.2866 -41.9154 238° Southwest  Level Estimated
Wed 02:31:00 AM 37.1970 -42.0973 238° Southwest  Level Estimated
Wed 02:32:00 AM 37.1071 -42.2788 238° Southwest  Level Estimated
Wed 02:33:00 AM 37.0168 -42.4598 238° Southwest  Level Estimated
Wed 02:34:00 AM 36.9264 -42.6404 238° Southwest  Level Estimated
Wed 02:35:00 AM 36.8356 -42.8206 238° Southwest  Level Estimated
Wed 02:36:00 AM 36.7446 -43.0003 238° Southwest  Level Estimated
Wed 02:37:00 AM 36.6533 -43.1796 238° Southwest  Level Estimated
Wed 02:38:00 AM 36.5618 -43.3585 238° Southwest  Level Estimated
Wed 02:39:00 AM 36.4699 -43.5370 237° Southwest  Level Estimated
Wed 02:40:00 AM 36.3778 -43.7150 237° Southwest  Level Estimated
Wed 02:41:00 AM 36.2855 -43.8927 237° Southwest  Level Estimated
Wed 02:42:00 AM 36.1929 -44.0699 237° Southwest  Level Estimated
Wed 02:43:00 AM 36.1000 -44.2467 237° Southwest  Level Estimated
Wed 02:44:00 AM 36.0069 -44.4230 237° Southwest  Level Estimated
Wed 02:45:00 AM 35.9135 -44.5990 237° Southwest  Level Estimated
Wed 02:46:00 AM 35.8198 -44.7745 237° Southwest  Level Estimated
Wed 02:47:00 AM 35.7259 -44.9496 237° Southwest  Level Estimated
Wed 02:48:00 AM 35.6318 -45.1243 236° Southwest  Level Estimated
Wed 02:49:00 AM 35.5374 -45.2986 236° Southwest  Level Estimated
Wed 02:50:00 AM 35.4427 -45.4725 236° Southwest  Level Estimated
Wed 02:51:00 AM 35.3478 -45.6460 236° Southwest  Level Estimated
Wed 02:52:00 AM 35.2526 -45.8190 236° Southwest  Level Estimated
Wed 02:53:00 AM 35.1572 -45.9917 236° Southwest  Level Estimated
Wed 02:54:00 AM 35.0616 -46.1640 236° Southwest  Level Estimated
Wed 02:55:00 AM 34.9657 -46.3358 236° Southwest  Level Estimated
Wed 02:56:00 AM 34.8696 -46.5073 236° Southwest  Level Estimated
Wed 02:57:00 AM 34.7732 -46.6783 236° Southwest  Level Estimated
Wed 02:58:00 AM 34.6766 -46.8490 235° Southwest  Level Estimated
Wed 02:59:00 AM 34.5798 -47.0192 235° Southwest  Level Estimated
Wed 03:00:00 AM 34.4827 -47.1891 235° Southwest  Level Estimated
Wed 03:01:00 AM 34.3854 -47.3585 235° Southwest  Level Estimated
Wed 03:02:00 AM 34.2878 -47.5276 235° Southwest  Level Estimated
Wed 03:03:00 AM 34.1900 -47.6963 235° Southwest  Level Estimated
Wed 03:04:00 AM 34.0920 -47.8645 235° Southwest  Level Estimated
Wed 03:05:00 AM 33.9938 -48.0324 235° Southwest  Level Estimated
Wed 03:06:00 AM 33.8953 -48.1999 235° Southwest  Level Estimated
Wed 03:07:00 AM 33.7966 -48.3671 235° Southwest  Level Estimated
Wed 03:08:00 AM 33.6977 -48.5338 235° Southwest  Level Estimated
Wed 03:09:00 AM 33.5986 -48.7001 234° Southwest  Level Estimated
Wed 03:10:00 AM 33.4992 -48.8661 234° Southwest  Level Estimated
Wed 03:11:00 AM 33.3996 -49.0317 234° Southwest  Level Estimated
Wed 03:12:00 AM 33.2998 -49.1969 234° Southwest  Level Estimated
Wed 03:13:00 AM 33.1998 -49.3617 234° Southwest  Level Estimated
Wed 03:14:00 AM 33.0996 -49.5262 234° Southwest  Level Estimated
Wed 03:15:00 AM 32.9991 -49.6902 234° Southwest  Level Estimated
Wed 03:16:00 AM 32.8984 -49.8539 234° Southwest  Level Estimated
Wed 03:17:00 AM 32.7976 -50.0173 234° Southwest  Level Estimated
Wed 03:18:00 AM 32.6965 -50.1802 234° Southwest  Level Estimated
Wed 03:19:00 AM 32.5952 -50.3428 234° Southwest  Level Estimated
Wed 03:20:00 AM 32.4937 -50.5050 233° Southwest  Level Estimated
Wed 03:21:00 AM 32.3919 -50.6669 233° Southwest  Level Estimated
Wed 03:22:00 AM 32.2900 -50.8284 233° Southwest  Level Estimated
Wed 03:23:00 AM 32.1879 -50.9895 233° Southwest  Level Estimated
Wed 03:24:00 AM 32.0856 -51.1503 233° Southwest  Level Estimated
Wed 03:25:00 AM 31.9830 -51.3107 233° Southwest  Level Estimated
Wed 03:26:00 AM 31.8803 -51.4707 233° Southwest  Level Estimated
Wed 03:27:00 AM 31.7773 -51.6304 233° Southwest  Level Estimated
Wed 03:28:00 AM 31.6742 -51.7898 233° Southwest  Level Estimated
Wed 03:29:00 AM 31.5709 -51.9487 233° Southwest  Level Estimated
Wed 03:30:00 AM 31.4674 -52.1074 233° Southwest  Level Estimated
Wed 03:31:00 AM 31.3636 -52.2657 233° Southwest  Level Estimated
Wed 03:32:00 AM 31.2597 -52.4236 232° Southwest  Level Estimated
Wed 03:33:00 AM 31.1556 -52.5812 232° Southwest  Level Estimated
Wed 03:33:02 AM 35.0000 -40.0000 236° Southwest 526 605 35,000  Level New York Oceanic (ODAPS)
Wed 03:35:44 AM 34.7667 -40.4000 236° Southwest 524 603 35,000  Level New York Oceanic (ODAPS)
Wed 03:45:21 AM 33.9667 -41.8167 235° Southwest 524 603 35,000  Level New York Oceanic (ODAPS)
Wed 03:54:57 AM 33.1333 -43.2000 234° Southwest 520 598 35,000  Level New York Oceanic (ODAPS)
Wed 04:04:33 AM 32.3000 -44.5333 233° Southwest 528 608 35,000  Level New York Oceanic (ODAPS)
Wed 04:07:59 AM 32.0000 -45.0000 236° Southwest 510 587 35,000  Level New York Oceanic (ODAPS)
Wed 04:14:08 AM 31.5167 -45.8500 236° Southwest 499 574 35,000  Level New York Oceanic (ODAPS)
Wed 04:23:44 AM 30.7667 -47.1333 235° Southwest 501 577 35,000  Level New York Oceanic (ODAPS)
Wed 04:33:20 AM 30.0000 -48.4000 235° Southwest 492 566 35,000  Level New York Oceanic (ODAPS)
Wed 04:42:56 AM 29.2333 -49.6167 235° Southwest 468 539 35,000  Level New York Oceanic (ODAPS)
Wed 04:45:58 AM 29.0000 -50.0000 237° Southwest 488 562 35,000  Level New York Oceanic (ODAPS)
Wed 04:52:32 AM 28.5167 -50.8667 237° Southwest 487 560 35,000  Level New York Oceanic (ODAPS)
Wed 05:02:08 AM 27.7833 -52.1000 236° Southwest 490 564 35,000  Level New York Oceanic (ODAPS)
Wed 05:11:45 AM 27.0500 -53.3167 235° Southwest 488 562 35,000  Level New York Oceanic (ODAPS)
Wed 05:21:21 AM 26.3000 -54.5167 235° Southwest 475 547 35,000  Level New York Oceanic (ODAPS)
Wed 05:25:22 AM 26.0000 -55.0000 238° Southwest 479 551 35,000  Level New York Oceanic (ODAPS)
Wed 05:30:57 AM 25.6000 -55.7000 237° Southwest 475 547 35,000  Level New York Oceanic (ODAPS)
Wed 05:40:32 AM 24.9167 -56.8667 237° Southwest 476 548 35,000  Level New York Oceanic (ODAPS)
Wed 05:50:09 AM 24.2167 -58.0333 236° Southwest 477 549 35,000  Level New York Oceanic (ODAPS)
Wed 05:59:44 AM 23.5000 -59.1833 236° Southwest 473 544 35,000  Level New York Oceanic (ODAPS)
Wed 06:06:37 AM 23.0000 -60.0000 237° Southwest 475 547 35,000  Level New York Oceanic (ODAPS)
Wed 06:09:21 AM 22.8000 -60.3333 237° Southwest 472 543 35,000  Level New York Oceanic (ODAPS)
Wed 06:18:57 AM 22.1000 -61.4833 236° Southwest 466 536 35,000  Level New York Oceanic (ODAPS)
Wed 06:28:47 AM 21.4000 -62.6000 242° Southwest 285 328 35,000  Level New York Oceanic (ODAPS)
Wed 06:28:48 AM 21.3833 -62.6333 237° Southwest 474 545 35,000  Level New York Oceanic (ODAPS)
Wed 06:30:31 AM 21.2500 -62.8333 238° Southwest 490 564 35,000  Level San Juan Center
Wed 06:31:00 AM 21.2057 -62.9224 237° Southwest 466 536 35,000  Level FlightAware Transoceanic
Wed 06:31:31 AM 21.1833 -62.9500 239° Southwest 480 552 35,000  Level San Juan Center
Wed 06:32:00 AM 21.0863 -63.0666 228° Southwest  Level FlightAware Approximate
Wed 06:32:31 AM 21.1167 -63.0667 239° Southwest 470 541 35,000  Level San Juan Center
Wed 06:33:00 AM 21.0933 -63.0901 223° Southwest  Level FlightAware Approximate
Wed 06:33:32 AM 21.0500 -63.1833 239° Southwest 460 529 35,000  Level San Juan Center
Wed 06:34:00 AM 20.9863 -63.2439 236° Southwest  Level FlightAware Approximate
Wed 06:34:32 AM 20.9833 -63.3000 239° Southwest 480 552 35,000  Level San Juan Center
Wed 06:35:00 AM 20.9073 -63.4303 238° Southwest 474 545 35,000  Level FlightAware Transoceanic
Wed 06:35:32 AM 20.9167 -63.4333 242° Southwest 470 541 35,000  Level San Juan Center
Wed 06:36:00 AM 20.8373 -63.5513 238° Southwest 474 545 35,000  Level FlightAware Transoceanic
Wed 06:36:32 AM 20.8500 -63.5500 239° Southwest 470 541 35,000  Level San Juan Center
Wed 06:37:33 AM 20.8000 -63.6833 248° West 470 541 35,000  Level San Juan Center
Wed 06:38:33 AM 20.7333 -63.8000 239° Southwest 480 552 35,000  Level San Juan Center
Wed 06:39:33 AM 20.6667 -63.9333 242° Southwest 470 541 35,000  Level San Juan Center
Wed 06:40:34 AM 20.6000 -64.0500 239° Southwest 470 541 35,000  Level San Juan Center
Wed 06:41:34 AM 20.5333 -64.1667 239° Southwest 470 541 35,000  Level San Juan Center
Wed 06:42:34 AM 20.4667 -64.3000 242° Southwest 480 552 35,000  Level San Juan Center
Wed 06:43:35 AM 20.4167 -64.4167 245° Southwest 480 552 35,000  Level San Juan Center
Wed 06:44:35 AM 20.3500 -64.5333 239° Southwest 470 541 35,000  Level San Juan Center
Wed 06:45:35 AM 20.2833 -64.6667 242° Southwest 470 541 35,000  Level San Juan Center
Wed 06:46:35 AM 20.2167 -64.7833 239° Southwest 470 541 35,000  Level San Juan Center
Wed 06:47:36 AM 20.1500 -64.9000 239° Southwest 470 541 35,000  Level San Juan Center
Wed 06:48:36 AM 20.0833 -65.0333 242° Southwest 470 541 35,000  Level San Juan Center
Wed 06:49:36 AM 20.0167 -65.1500 239° Southwest 470 541 35,000  Level San Juan Center
Wed 06:50:37 AM 19.9500 -65.2667 239° Southwest 470 541 35,000  Level San Juan Center
Wed 06:51:37 AM 19.9000 -65.3833 246° West 470 541 35,000  Level San Juan Center
Wed 06:52:37 AM 19.8333 -65.5167 242° Southwest 480 552 35,000  Level San Juan Center
Wed 06:53:38 AM 19.7667 -65.6333 239° Southwest 470 541 35,000  Level San Juan Center
Wed 06:54:38 AM 19.7000 -65.7500 239° Southwest 470 541 35,000  Level San Juan Center
Wed 06:55:38 AM 19.6333 -65.8667 239° Southwest 470 541 35,000  Level San Juan Center
Wed 06:56:39 AM 19.5500 -66.0167 239° Southwest 480 552 35,000  Level San Juan Center
Wed 06:57:39 AM 19.4833 -66.1500 242° Southwest 480 552 35,000  Level San Juan Center
Wed 06:58:39 AM 19.4167 -66.2667 239° Southwest 480 552 35,000 -99 Level San Juan Center
Wed 06:59:40 AM 19.3500 -66.3833 239° Southwest 480 552 34,800 -1,339 Descending San Juan Center
Wed 07:00:40 AM 19.2833 -66.5167 242° Southwest 490 564 32,300 -2,100 Descending San Juan Center
Wed 07:01:40 AM 19.2167 -66.6333 239° Southwest 480 552 30,600 -1,785 Descending San Juan Center
Wed 07:02:41 AM 19.1500 -66.7500 239° Southwest 460 529 28,700 -1,785 Descending San Juan Center
Wed 07:03:41 AM 19.1000 -66.8667 246° West 440 506 27,000 -1,750 Descending San Juan Center
Wed 07:04:41 AM 19.0333 -66.9667 235° Southwest 420 483 25,200 -1,686 Descending San Juan Center
Wed 07:05:42 AM 18.9833 -67.0833 246° West 410 472 23,600 -1,537 Descending San Juan Center
Wed 07:06:42 AM 18.9333 -67.1833 242° Southwest 410 472 22,100 -1,550 Descending San Juan Center
Wed 07:07:42 AM 18.8667 -67.2833 235° Southwest 400 460 20,500 -1,537 Descending San Juan Center
Wed 07:08:43 AM 18.8167 -67.3833 242° Southwest 390 449 19,000 -1,488 Descending San Juan Center
Wed 07:09:43 AM 18.7667 -67.4667 238° Southwest 380 437 17,500 -1,400 Descending San Juan Center
Wed 07:10:43 AM 18.7000 -67.5667 235° Southwest 380 437 16,200 -1,190 Descending San Juan Center
Wed 07:11:44 AM 18.6500 -67.6667 242° Southwest 360 414 15,100 -1,150 Descending San Juan Center
Wed 07:12:43 AM 18.6167 -67.7500 247° West 350 403 13,900 -1,300 Descending San Juan Center
Wed 07:13:44 AM 18.5667 -67.8333 238° Southwest 340 391 12,500 -1,438 Descending San Juan Center
Wed 07:14:44 AM 18.5167 -67.9167 238° Southwest 340 391 11,000 -1,300 Descending San Juan Center
Wed 07:15:44 AM 18.4667 -68.0167 242° Southwest 340 391 9,900 -1,100 Descending San Juan Center
Wed 07:17:00 AM 18.5321 -68.2439 282° West  Level FlightAware Approximate
Wed 07:24:00 AM 18.5667 -68.3333 293° West  Level FlightAware Approximate
Wed 07:25:00 AM 18.5674 -68.3634 293° West  Level Estimated
Wed 07:26:00 AM 18.5674 -68.3634 293° West  Level Estimated
Wed 07:27:00 AM 18.5674 -68.3634 293° West  Level Estimated
Wed 07:28:00 AM 18.5674 -68.3634 293° West  Level Estimated
Wed 07:29:00 AM 18.5674 -68.3634 293° West  Level Estimated
Wed 07:30:00 AM 18.5674 -68.3634 293° West  Level Estimated
Wed 07:31:00 AM 18.5674 -68.3634 293° West  Level Estimated
Wed 07:32:00 AM 18.5674 -68.3634 293° West  Level Estimated
Wed 07:33:00 AM 18.5674 -68.3634 293° West  Level Estimated
Wed 07:34:00 AM 18.5674 -68.3634 293° West  Level Estimated
Wed 07:35:00 AM 18.5674 -68.3634 293° West  Level Estimated
Wed 07:36:00 AM 18.5674 -68.3634 293° West  Level Estimated
Wed 07:37:00 AM 18.5674 -68.3634 293° West  Level Estimated
Wed 07:38:00 AM 18.5674 -68.3634 293° West  Level Estimated
Wed 07:39:00 AM 18.5674 -68.3634 293° West  Level Estimated
Wed 07:40:00 AM 18.5674 -68.3634 293° West  Level Estimated

Login

Don't have an account? Register now (free) for customized features, flight alerts, and more!